sensor_id;sensor_type;location;lat;lon;timestamp;P1;durP1;ratioP1;P2;durP2;ratioP2
18793;SDS011;29610;49.022;12.114;2022-11-06T00:00:44;22.13;;;11.00;;
18793;SDS011;29610;49.022;12.114;2022-11-06T00:03:14;22.83;;;12.07;;
18793;SDS011;29610;49.022;12.114;2022-11-06T00:05:43;26.13;;;12.13;;
18793;SDS011;29610;49.022;12.114;2022-11-06T00:08:30;30.33;;;12.50;;
18793;SDS011;29610;49.022;12.114;2022-11-06T00:11:07;24.13;;;12.90;;
18793;SDS011;29610;49.022;12.114;2022-11-06T00:13:37;26.00;;;13.20;;
18793;SDS011;29610;49.022;12.114;2022-11-06T00:16:08;25.63;;;13.00;;
18793;SDS011;29610;49.022;12.114;2022-11-06T00:18:40;27.50;;;12.70;;
18793;SDS011;29610;49.022;12.114;2022-11-06T00:21:10;26.83;;;13.77;;
18793;SDS011;29610;49.022;12.114;2022-11-06T00:23:43;24.17;;;13.60;;
18793;SDS011;29610;49.022;12.114;2022-11-06T00:26:13;28.63;;;12.00;;
18793;SDS011;29610;49.022;12.114;2022-11-06T00:28:44;27.43;;;13.57;;
18793;SDS011;29610;49.022;12.114;2022-11-06T00:31:14;23.70;;;12.20;;
18793;SDS011;29610;49.022;12.114;2022-11-06T00:33:47;26.33;;;12.47;;
18793;SDS011;29610;49.022;12.114;2022-11-06T00:36:17;28.00;;;13.63;;
18793;SDS011;29610;49.022;12.114;2022-11-06T00:38:49;36.63;;;15.07;;
18793;SDS011;29610;49.022;12.114;2022-11-06T00:41:19;36.27;;;14.30;;
18793;SDS011;29610;49.022;12.114;2022-11-06T00:43:50;31.17;;;13.97;;
18793;SDS011;29610;49.022;12.114;2022-11-06T00:46:20;38.07;;;15.83;;
18793;SDS011;29610;49.022;12.114;2022-11-06T00:48:50;42.33;;;15.63;;
18793;SDS011;29610;49.022;12.114;2022-11-06T00:51:20;35.57;;;14.07;;
18793;SDS011;29610;49.022;12.114;2022-11-06T00:53:52;38.40;;;15.13;;
18793;SDS011;29610;49.022;12.114;2022-11-06T00:56:23;36.33;;;15.47;;
18793;SDS011;29610;49.022;12.114;2022-11-06T00:58:52;37.83;;;16.83;;
18793;SDS011;29610;49.022;12.114;2022-11-06T01:01:22;44.13;;;16.70;;
18793;SDS011;29610;49.022;12.114;2022-11-06T01:03:56;42.70;;;16.50;;
18793;SDS011;29610;49.022;12.114;2022-11-06T01:06:27;41.87;;;15.80;;
18793;SDS011;29610;49.022;12.114;2022-11-06T01:08:59;37.00;;;15.97;;
18793;SDS011;29610;49.022;12.114;2022-11-06T01:11:30;36.00;;;14.40;;
18793;SDS011;29610;49.022;12.114;2022-11-06T01:14:21;39.60;;;14.80;;
18793;SDS011;29610;49.022;12.114;2022-11-06T01:16:51;39.60;;;15.90;;
18793;SDS011;29610;49.022;12.114;2022-11-06T01:19:21;46.57;;;16.33;;
18793;SDS011;29610;49.022;12.114;2022-11-06T01:21:51;37.97;;;14.90;;
18793;SDS011;29610;49.022;12.114;2022-11-06T01:24:20;37.60;;;15.00;;
18793;SDS011;29610;49.022;12.114;2022-11-06T01:26:52;34.43;;;15.63;;
18793;SDS011;29610;49.022;12.114;2022-11-06T01:29:41;38.03;;;16.00;;
18793;SDS011;29610;49.022;12.114;2022-11-06T01:32:10;41.47;;;15.50;;
18793;SDS011;29610;49.022;12.114;2022-11-06T01:34:40;37.00;;;15.17;;
18793;SDS011;29610;49.022;12.114;2022-11-06T01:37:09;36.80;;;15.77;;
18793;SDS011;29610;49.022;12.114;2022-11-06T01:39:40;40.90;;;16.10;;
18793;SDS011;29610;49.022;12.114;2022-11-06T01:42:09;37.60;;;14.93;;
18793;SDS011;29610;49.022;12.114;2022-11-06T01:47:53;42.13;;;15.90;;
18793;SDS011;29610;49.022;12.114;2022-11-06T01:50:24;46.07;;;18.30;;
18793;SDS011;29610;49.022;12.114;2022-11-06T01:52:53;44.60;;;17.20;;
18793;SDS011;29610;49.022;12.114;2022-11-06T01:55:28;44.80;;;18.20;;
18793;SDS011;29610;49.022;12.114;2022-11-06T01:58:03;46.67;;;17.60;;
18793;SDS011;29610;49.022;12.114;2022-11-06T02:00:36;57.93;;;19.37;;
18793;SDS011;29610;49.022;12.114;2022-11-06T02:03:05;58.33;;;20.23;;
18793;SDS011;29610;49.022;12.114;2022-11-06T02:05:36;65.83;;;22.20;;
18793;SDS011;29610;49.022;12.114;2022-11-06T02:08:05;55.93;;;21.00;;
18793;SDS011;29610;49.022;12.114;2022-11-06T02:10:37;58.87;;;20.50;;
18793;SDS011;29610;49.022;12.114;2022-11-06T02:13:11;52.97;;;19.87;;
18793;SDS011;29610;49.022;12.114;2022-11-06T02:15:57;51.87;;;18.17;;
18793;SDS011;29610;49.022;12.114;2022-11-06T02:18:44;52.03;;;20.07;;
18793;SDS011;29610;49.022;12.114;2022-11-06T02:24:36;163.97;;;24.47;;
18793;SDS011;29610;49.022;12.114;2022-11-06T02:27:19;97.03;;;20.87;;
18793;SDS011;29610;49.022;12.114;2022-11-06T02:29:52;111.47;;;18.53;;
18793;SDS011;29610;49.022;12.114;2022-11-06T02:32:29;90.03;;;19.67;;
18793;SDS011;29610;49.022;12.114;2022-11-06T02:35:09;247.93;;;30.10;;
18793;SDS011;29610;49.022;12.114;2022-11-06T02:37:47;194.63;;;22.23;;
18793;SDS011;29610;49.022;12.114;2022-11-06T02:40:22;165.13;;;22.50;;
18793;SDS011;29610;49.022;12.114;2022-11-06T02:42:58;132.10;;;23.37;;
18793;SDS011;29610;49.022;12.114;2022-11-06T02:45:35;88.30;;;19.53;;
18793;SDS011;29610;49.022;12.114;2022-11-06T02:48:11;175.70;;;24.80;;
18793;SDS011;29610;49.022;12.114;2022-11-06T02:50:46;202.57;;;34.13;;
18793;SDS011;29610;49.022;12.114;2022-11-06T02:53:19;86.33;;;21.57;;
18793;SDS011;29610;49.022;12.114;2022-11-06T02:55:54;96.53;;;20.30;;
18793;SDS011;29610;49.022;12.114;2022-11-06T02:58:36;256.10;;;31.37;;
18793;SDS011;29610;49.022;12.114;2022-11-06T03:01:17;78.13;;;19.23;;
18793;SDS011;29610;49.022;12.114;2022-11-06T03:03:55;246.93;;;36.63;;
18793;SDS011;29610;49.022;12.114;2022-11-06T03:06:31;122.87;;;20.80;;
18793;SDS011;29610;49.022;12.114;2022-11-06T03:09:05;290.87;;;32.27;;
18793;SDS011;29610;49.022;12.114;2022-11-06T03:11:41;98.63;;;19.80;;
18793;SDS011;29610;49.022;12.114;2022-11-06T03:14:11;140.73;;;21.40;;
18793;SDS011;29610;49.022;12.114;2022-11-06T03:16:50;192.33;;;23.40;;
18793;SDS011;29610;49.022;12.114;2022-11-06T03:19:24;89.07;;;19.40;;
18793;SDS011;29610;49.022;12.114;2022-11-06T03:22:01;282.30;;;29.83;;
18793;SDS011;29610;49.022;12.114;2022-11-06T03:24:39;137.30;;;20.33;;
18793;SDS011;29610;49.022;12.114;2022-11-06T03:27:17;248.07;;;27.80;;
18793;SDS011;29610;49.022;12.114;2022-11-06T03:29:51;97.70;;;19.63;;
18793;SDS011;29610;49.022;12.114;2022-11-06T03:32:29;94.03;;;19.10;;
18793;SDS011;29610;49.022;12.114;2022-11-06T03:35:05;135.77;;;25.90;;
18793;SDS011;29610;49.022;12.114;2022-11-06T03:37:47;149.70;;;24.40;;
18793;SDS011;29610;49.022;12.114;2022-11-06T03:40:24;42.47;;;15.47;;
18793;SDS011;29610;49.022;12.114;2022-11-06T03:42:58;41.73;;;16.70;;
18793;SDS011;29610;49.022;12.114;2022-11-06T03:45:34;73.20;;;19.13;;
18793;SDS011;29610;49.022;12.114;2022-11-06T03:48:08;87.93;;;20.27;;
18793;SDS011;29610;49.022;12.114;2022-11-06T03:50:46;62.67;;;19.17;;
18793;SDS011;29610;49.022;12.114;2022-11-06T03:53:24;46.47;;;15.60;;
18793;SDS011;29610;49.022;12.114;2022-11-06T03:55:57;57.20;;;15.83;;
18793;SDS011;29610;49.022;12.114;2022-11-06T03:58:34;41.03;;;14.97;;
18793;SDS011;29610;49.022;12.114;2022-11-06T04:01:09;39.60;;;14.27;;
18793;SDS011;29610;49.022;12.114;2022-11-06T04:03:43;50.97;;;17.80;;
18793;SDS011;29610;49.022;12.114;2022-11-06T04:06:17;77.30;;;16.53;;
18793;SDS011;29610;49.022;12.114;2022-11-06T04:08:53;42.70;;;16.20;;
18793;SDS011;29610;49.022;12.114;2022-11-06T04:11:46;38.63;;;16.17;;
18793;SDS011;29610;49.022;12.114;2022-11-06T04:14:36;37.47;;;15.20;;
18793;SDS011;29610;49.022;12.114;2022-11-06T04:17:13;60.97;;;16.97;;
18793;SDS011;29610;49.022;12.114;2022-11-06T04:19:45;97.07;;;18.83;;
18793;SDS011;29610;49.022;12.114;2022-11-06T04:22:21;141.63;;;22.13;;
18793;SDS011;29610;49.022;12.114;2022-11-06T04:25:10;166.30;;;22.47;;
18793;SDS011;29610;49.022;12.114;2022-11-06T04:28:17;47.63;;;15.50;;
18793;SDS011;29610;49.022;12.114;2022-11-06T04:30:59;77.73;;;17.17;;
18793;SDS011;29610;49.022;12.114;2022-11-06T04:33:42;86.73;;;15.40;;
18793;SDS011;29610;49.022;12.114;2022-11-06T04:36:20;174.67;;;21.30;;
18793;SDS011;29610;49.022;12.114;2022-11-06T04:39:00;91.90;;;16.57;;
18793;SDS011;29610;49.022;12.114;2022-11-06T04:41:41;130.07;;;19.07;;
18793;SDS011;29610;49.022;12.114;2022-11-06T04:44:25;40.37;;;12.97;;
18793;SDS011;29610;49.022;12.114;2022-11-06T04:47:01;40.20;;;12.70;;
18793;SDS011;29610;49.022;12.114;2022-11-06T04:49:36;55.47;;;15.47;;
18793;SDS011;29610;49.022;12.114;2022-11-06T04:52:10;35.90;;;12.93;;
18793;SDS011;29610;49.022;12.114;2022-11-06T04:54:45;66.10;;;16.50;;
18793;SDS011;29610;49.022;12.114;2022-11-06T04:57:14;41.37;;;14.60;;
18793;SDS011;29610;49.022;12.114;2022-11-06T04:59:43;67.13;;;16.70;;
18793;SDS011;29610;49.022;12.114;2022-11-06T05:02:12;48.70;;;13.57;;
18793;SDS011;29610;49.022;12.114;2022-11-06T05:04:42;69.50;;;14.20;;
18793;SDS011;29610;49.022;12.114;2022-11-06T05:07:11;37.90;;;12.57;;
18793;SDS011;29610;49.022;12.114;2022-11-06T05:09:40;45.63;;;12.80;;
18793;SDS011;29610;49.022;12.114;2022-11-06T05:12:09;158.30;;;20.73;;
18793;SDS011;29610;49.022;12.114;2022-11-06T05:14:37;70.77;;;14.90;;
18793;SDS011;29610;49.022;12.114;2022-11-06T05:17:06;71.03;;;17.37;;
18793;SDS011;29610;49.022;12.114;2022-11-06T05:19:35;59.47;;;13.17;;
18793;SDS011;29610;49.022;12.114;2022-11-06T05:22:04;219.93;;;23.87;;
18793;SDS011;29610;49.022;12.114;2022-11-06T05:24:50;62.27;;;17.70;;
18793;SDS011;29610;49.022;12.114;2022-11-06T05:27:19;42.87;;;13.43;;
18793;SDS011;29610;49.022;12.114;2022-11-06T05:29:47;54.63;;;14.87;;
18793;SDS011;29610;49.022;12.114;2022-11-06T05:32:16;67.47;;;16.50;;
18793;SDS011;29610;49.022;12.114;2022-11-06T05:34:45;86.00;;;19.13;;
18793;SDS011;29610;49.022;12.114;2022-11-06T05:37:14;72.83;;;19.00;;
18793;SDS011;29610;49.022;12.114;2022-11-06T05:39:43;64.57;;;17.63;;
18793;SDS011;29610;49.022;12.114;2022-11-06T05:42:12;119.80;;;23.77;;
18793;SDS011;29610;49.022;12.114;2022-11-06T05:44:40;126.27;;;21.93;;
18793;SDS011;29610;49.022;12.114;2022-11-06T05:47:09;75.50;;;18.67;;
18793;SDS011;29610;49.022;12.114;2022-11-06T05:49:37;64.60;;;19.67;;
18793;SDS011;29610;49.022;12.114;2022-11-06T05:52:06;76.63;;;17.73;;
18793;SDS011;29610;49.022;12.114;2022-11-06T05:54:36;70.77;;;15.40;;
18793;SDS011;29610;49.022;12.114;2022-11-06T05:57:05;96.17;;;19.10;;
18793;SDS011;29610;49.022;12.114;2022-11-06T05:59:34;50.43;;;16.90;;
18793;SDS011;29610;49.022;12.114;2022-11-06T06:02:03;55.03;;;15.80;;
18793;SDS011;29610;49.022;12.114;2022-11-06T06:04:31;43.40;;;15.53;;
18793;SDS011;29610;49.022;12.114;2022-11-06T06:07:00;68.27;;;17.97;;
18793;SDS011;29610;49.022;12.114;2022-11-06T06:09:29;56.73;;;16.60;;
18793;SDS011;29610;49.022;12.114;2022-11-06T06:11:59;176.63;;;24.23;;
18793;SDS011;29610;49.022;12.114;2022-11-06T06:14:27;149.70;;;23.90;;
18793;SDS011;29610;49.022;12.114;2022-11-06T06:16:56;87.80;;;18.40;;
18793;SDS011;29610;49.022;12.114;2022-11-06T06:19:24;65.13;;;16.97;;
18793;SDS011;29610;49.022;12.114;2022-11-06T06:21:53;87.13;;;20.03;;
18793;SDS011;29610;49.022;12.114;2022-11-06T06:24:22;58.00;;;17.60;;
18793;SDS011;29610;49.022;12.114;2022-11-06T06:26:50;114.77;;;21.27;;
18793;SDS011;29610;49.022;12.114;2022-11-06T06:29:20;113.87;;;20.73;;
18793;SDS011;29610;49.022;12.114;2022-11-06T06:31:49;66.30;;;16.47;;
18793;SDS011;29610;49.022;12.114;2022-11-06T06:34:17;92.47;;;21.30;;
18793;SDS011;29610;49.022;12.114;2022-11-06T06:36:47;72.57;;;19.87;;
18793;SDS011;29610;49.022;12.114;2022-11-06T06:39:17;77.47;;;18.67;;
18793;SDS011;29610;49.022;12.114;2022-11-06T06:41:46;70.40;;;18.60;;
18793;SDS011;29610;49.022;12.114;2022-11-06T06:44:15;78.00;;;18.90;;
18793;SDS011;29610;49.022;12.114;2022-11-06T06:46:45;70.03;;;17.43;;
18793;SDS011;29610;49.022;12.114;2022-11-06T06:49:14;54.10;;;16.87;;
18793;SDS011;29610;49.022;12.114;2022-11-06T06:51:42;60.60;;;17.37;;
18793;SDS011;29610;49.022;12.114;2022-11-06T06:54:11;80.47;;;17.33;;
18793;SDS011;29610;49.022;12.114;2022-11-06T06:56:40;66.80;;;16.93;;
18793;SDS011;29610;49.022;12.114;2022-11-06T06:59:09;51.03;;;17.27;;
18793;SDS011;29610;49.022;12.114;2022-11-06T07:01:37;154.50;;;21.10;;
18793;SDS011;29610;49.022;12.114;2022-11-06T07:04:08;86.27;;;16.73;;
18793;SDS011;29610;49.022;12.114;2022-11-06T07:06:37;136.43;;;18.57;;
18793;SDS011;29610;49.022;12.114;2022-11-06T07:09:06;55.37;;;15.50;;
18793;SDS011;29610;49.022;12.114;2022-11-06T07:11:35;50.13;;;15.57;;
18793;SDS011;29610;49.022;12.114;2022-11-06T07:14:03;174.63;;;24.07;;
18793;SDS011;29610;49.022;12.114;2022-11-06T07:16:32;173.83;;;26.10;;
18793;SDS011;29610;49.022;12.114;2022-11-06T07:19:00;73.67;;;19.70;;
18793;SDS011;29610;49.022;12.114;2022-11-06T07:21:30;61.53;;;17.40;;
18793;SDS011;29610;49.022;12.114;2022-11-06T07:23:59;64.50;;;18.07;;
18793;SDS011;29610;49.022;12.114;2022-11-06T07:26:27;81.37;;;19.13;;
18793;SDS011;29610;49.022;12.114;2022-11-06T07:28:56;85.20;;;18.40;;
18793;SDS011;29610;49.022;12.114;2022-11-06T07:31:25;81.83;;;20.50;;
18793;SDS011;29610;49.022;12.114;2022-11-06T07:33:53;117.03;;;21.67;;
18793;SDS011;29610;49.022;12.114;2022-11-06T07:36:23;73.50;;;18.37;;
18793;SDS011;29610;49.022;12.114;2022-11-06T07:38:53;64.90;;;20.17;;
18793;SDS011;29610;49.022;12.114;2022-11-06T07:41:22;254.50;;;29.50;;
18793;SDS011;29610;49.022;12.114;2022-11-06T07:43:51;84.83;;;22.37;;
18793;SDS011;29610;49.022;12.114;2022-11-06T07:46:19;91.27;;;20.60;;
18793;SDS011;29610;49.022;12.114;2022-11-06T07:48:48;70.30;;;18.47;;
18793;SDS011;29610;49.022;12.114;2022-11-06T07:51:17;74.73;;;18.40;;
18793;SDS011;29610;49.022;12.114;2022-11-06T07:53:46;63.47;;;18.67;;
18793;SDS011;29610;49.022;12.114;2022-11-06T07:56:16;76.37;;;20.57;;
18793;SDS011;29610;49.022;12.114;2022-11-06T07:58:44;83.20;;;21.30;;
18793;SDS011;29610;49.022;12.114;2022-11-06T08:01:14;118.50;;;23.47;;
18793;SDS011;29610;49.022;12.114;2022-11-06T08:03:45;97.63;;;20.07;;
18793;SDS011;29610;49.022;12.114;2022-11-06T08:06:14;79.97;;;23.40;;
18793;SDS011;29610;49.022;12.114;2022-11-06T08:08:42;174.00;;;26.13;;
18793;SDS011;29610;49.022;12.114;2022-11-06T08:11:12;78.63;;;23.37;;
18793;SDS011;29610;49.022;12.114;2022-11-06T08:13:45;82.60;;;20.73;;
18793;SDS011;29610;49.022;12.114;2022-11-06T08:16:14;106.07;;;22.07;;
18793;SDS011;29610;49.022;12.114;2022-11-06T08:18:43;78.77;;;22.30;;
18793;SDS011;29610;49.022;12.114;2022-11-06T08:21:11;59.23;;;21.03;;
18793;SDS011;29610;49.022;12.114;2022-11-06T08:23:40;72.37;;;21.73;;
18793;SDS011;29610;49.022;12.114;2022-11-06T08:26:09;81.00;;;21.97;;
18793;SDS011;29610;49.022;12.114;2022-11-06T08:28:38;84.40;;;21.27;;
18793;SDS011;29610;49.022;12.114;2022-11-06T08:31:08;69.17;;;21.33;;
18793;SDS011;29610;49.022;12.114;2022-11-06T08:33:37;67.40;;;21.00;;
18793;SDS011;29610;49.022;12.114;2022-11-06T08:36:07;66.77;;;20.27;;
18793;SDS011;29610;49.022;12.114;2022-11-06T08:38:37;77.27;;;22.73;;
18793;SDS011;29610;49.022;12.114;2022-11-06T08:41:06;67.73;;;23.90;;
18793;SDS011;29610;49.022;12.114;2022-11-06T08:43:38;80.20;;;26.23;;
18793;SDS011;29610;49.022;12.114;2022-11-06T08:46:09;59.80;;;24.00;;
18793;SDS011;29610;49.022;12.114;2022-11-06T08:48:38;69.17;;;24.40;;
18793;SDS011;29610;49.022;12.114;2022-11-06T08:51:07;86.00;;;29.23;;
18793;SDS011;29610;49.022;12.114;2022-11-06T08:53:35;140.97;;;46.30;;
18793;SDS011;29610;49.022;12.114;2022-11-06T08:56:04;91.73;;;30.80;;
18793;SDS011;29610;49.022;12.114;2022-11-06T08:58:34;64.17;;;24.60;;
18793;SDS011;29610;49.022;12.114;2022-11-06T09:01:03;84.37;;;29.07;;
18793;SDS011;29610;49.022;12.114;2022-11-06T09:03:33;72.77;;;28.57;;
18793;SDS011;29610;49.022;12.114;2022-11-06T09:06:03;70.67;;;28.90;;
18793;SDS011;29610;49.022;12.114;2022-11-06T09:08:34;77.83;;;28.27;;
18793;SDS011;29610;49.022;12.114;2022-11-06T09:11:03;57.50;;;21.27;;
18793;SDS011;29610;49.022;12.114;2022-11-06T09:13:34;59.77;;;26.00;;
18793;SDS011;29610;49.022;12.114;2022-11-06T09:16:23;65.73;;;26.10;;
18793;SDS011;29610;49.022;12.114;2022-11-06T09:18:54;58.10;;;22.40;;
18793;SDS011;29610;49.022;12.114;2022-11-06T09:21:23;70.47;;;24.47;;
18793;SDS011;29610;49.022;12.114;2022-11-06T09:23:52;51.27;;;19.27;;
18793;SDS011;29610;49.022;12.114;2022-11-06T09:26:21;60.10;;;20.20;;
18793;SDS011;29610;49.022;12.114;2022-11-06T09:28:49;45.87;;;19.20;;
18793;SDS011;29610;49.022;12.114;2022-11-06T09:31:18;47.70;;;20.67;;
18793;SDS011;29610;49.022;12.114;2022-11-06T09:33:46;58.77;;;20.40;;
18793;SDS011;29610;49.022;12.114;2022-11-06T09:36:17;47.40;;;19.80;;
18793;SDS011;29610;49.022;12.114;2022-11-06T09:38:46;45.40;;;19.20;;
18793;SDS011;29610;49.022;12.114;2022-11-06T09:41:16;43.20;;;18.63;;
18793;SDS011;29610;49.022;12.114;2022-11-06T09:43:55;42.73;;;18.87;;
18793;SDS011;29610;49.022;12.114;2022-11-06T09:46:43;44.40;;;19.73;;
18793;SDS011;29610;49.022;12.114;2022-11-06T09:49:16;44.30;;;20.30;;
18793;SDS011;29610;49.022;12.114;2022-11-06T09:51:56;41.03;;;19.20;;
18793;SDS011;29610;49.022;12.114;2022-11-06T09:54:31;35.30;;;16.97;;
18793;SDS011;29610;49.022;12.114;2022-11-06T09:57:08;39.83;;;16.33;;
18793;SDS011;29610;49.022;12.114;2022-11-06T09:59:45;38.40;;;17.67;;
18793;SDS011;29610;49.022;12.114;2022-11-06T10:02:22;36.30;;;17.77;;
18793;SDS011;29610;49.022;12.114;2022-11-06T10:05:03;34.40;;;15.60;;
18793;SDS011;29610;49.022;12.114;2022-11-06T10:07:40;34.33;;;17.03;;
18793;SDS011;29610;49.022;12.114;2022-11-06T10:10:14;30.40;;;14.67;;
18793;SDS011;29610;49.022;12.114;2022-11-06T10:12:51;31.83;;;15.50;;
18793;SDS011;29610;49.022;12.114;2022-11-06T10:15:34;28.77;;;13.83;;
18793;SDS011;29610;49.022;12.114;2022-11-06T10:18:16;30.93;;;13.33;;
18793;SDS011;29610;49.022;12.114;2022-11-06T10:20:56;31.20;;;14.50;;
18793;SDS011;29610;49.022;12.114;2022-11-06T10:23:41;29.80;;;14.40;;
18793;SDS011;29610;49.022;12.114;2022-11-06T10:26:17;30.07;;;14.93;;
18793;SDS011;29610;49.022;12.114;2022-11-06T10:29:06;27.50;;;13.73;;
18793;SDS011;29610;49.022;12.114;2022-11-06T10:31:57;31.53;;;13.60;;
18793;SDS011;29610;49.022;12.114;2022-11-06T10:34:46;28.77;;;13.60;;
18793;SDS011;29610;49.022;12.114;2022-11-06T10:37:22;27.50;;;12.87;;
18793;SDS011;29610;49.022;12.114;2022-11-06T10:39:58;28.53;;;12.80;;
18793;SDS011;29610;49.022;12.114;2022-11-06T10:42:34;30.07;;;13.03;;
18793;SDS011;29610;49.022;12.114;2022-11-06T10:45:09;31.37;;;15.53;;
18793;SDS011;29610;49.022;12.114;2022-11-06T10:47:42;27.00;;;13.53;;
18793;SDS011;29610;49.022;12.114;2022-11-06T10:50:16;27.37;;;12.97;;
18793;SDS011;29610;49.022;12.114;2022-11-06T10:52:50;29.23;;;13.63;;
18793;SDS011;29610;49.022;12.114;2022-11-06T10:58:47;28.57;;;13.97;;
18793;SDS011;29610;49.022;12.114;2022-11-06T11:01:15;27.30;;;13.60;;
18793;SDS011;29610;49.022;12.114;2022-11-06T11:03:44;25.73;;;12.37;;
18793;SDS011;29610;49.022;12.114;2022-11-06T11:06:15;33.00;;;13.00;;
18793;SDS011;29610;49.022;12.114;2022-11-06T11:08:44;28.27;;;13.63;;
18793;SDS011;29610;49.022;12.114;2022-11-06T11:11:17;27.40;;;13.17;;
18793;SDS011;29610;49.022;12.114;2022-11-06T11:13:50;24.60;;;13.17;;
18793;SDS011;29610;49.022;12.114;2022-11-06T11:16:41;26.10;;;14.10;;
18793;SDS011;29610;49.022;12.114;2022-11-06T11:19:21;28.13;;;13.60;;
18793;SDS011;29610;49.022;12.114;2022-11-06T11:21:55;25.57;;;13.50;;
18793;SDS011;29610;49.022;12.114;2022-11-06T11:24:26;26.17;;;13.30;;
18793;SDS011;29610;49.022;12.114;2022-11-06T11:26:58;27.90;;;12.77;;
18793;SDS011;29610;49.022;12.114;2022-11-06T11:29:29;25.77;;;12.60;;
18793;SDS011;29610;49.022;12.114;2022-11-06T11:32:01;21.90;;;11.27;;
18793;SDS011;29610;49.022;12.114;2022-11-06T11:34:34;24.00;;;11.97;;
18793;SDS011;29610;49.022;12.114;2022-11-06T11:37:21;22.87;;;12.00;;
18793;SDS011;29610;49.022;12.114;2022-11-06T11:39:54;25.63;;;13.17;;
18793;SDS011;29610;49.022;12.114;2022-11-06T11:42:44;19.07;;;10.73;;
18793;SDS011;29610;49.022;12.114;2022-11-06T11:45:14;23.43;;;11.63;;
18793;SDS011;29610;49.022;12.114;2022-11-06T11:47:46;21.97;;;10.27;;
18793;SDS011;29610;49.022;12.114;2022-11-06T11:50:18;23.50;;;10.90;;
18793;SDS011;29610;49.022;12.114;2022-11-06T11:52:58;19.53;;;9.67;;
18793;SDS011;29610;49.022;12.114;2022-11-06T11:55:37;19.67;;;9.93;;
18793;SDS011;29610;49.022;12.114;2022-11-06T11:58:19;20.60;;;10.33;;
18793;SDS011;29610;49.022;12.114;2022-11-06T12:00:54;30.37;;;11.10;;
18793;SDS011;29610;49.022;12.114;2022-11-06T12:03:27;19.43;;;9.80;;
18793;SDS011;29610;49.022;12.114;2022-11-06T12:06:05;18.60;;;9.57;;
18793;SDS011;29610;49.022;12.114;2022-11-06T12:08:38;18.20;;;8.97;;
18793;SDS011;29610;49.022;12.114;2022-11-06T12:11:15;20.07;;;9.50;;
18793;SDS011;29610;49.022;12.114;2022-11-06T12:16:54;21.30;;;10.10;;
18793;SDS011;29610;49.022;12.114;2022-11-06T12:19:30;21.20;;;8.97;;
18793;SDS011;29610;49.022;12.114;2022-11-06T12:22:04;20.33;;;9.93;;
18793;SDS011;29610;49.022;12.114;2022-11-06T12:24:44;22.20;;;9.83;;
18793;SDS011;29610;49.022;12.114;2022-11-06T12:27:21;19.30;;;9.50;;
18793;SDS011;29610;49.022;12.114;2022-11-06T12:36:27;19.07;;;8.63;;
18793;SDS011;29610;49.022;12.114;2022-11-06T12:39:03;21.17;;;9.90;;
18793;SDS011;29610;49.022;12.114;2022-11-06T12:47:40;19.20;;;9.23;;
18793;SDS011;29610;49.022;12.114;2022-11-06T12:55:52;24.70;;;12.33;;
18793;SDS011;29610;49.022;12.114;2022-11-06T12:58:50;19.40;;;10.33;;
18793;SDS011;29610;49.022;12.114;2022-11-06T13:01:40;19.47;;;9.83;;
18793;SDS011;29610;49.022;12.114;2022-11-06T13:04:46;19.20;;;9.00;;
18793;SDS011;29610;49.022;12.114;2022-11-06T13:07:41;18.57;;;8.97;;
18793;SDS011;29610;49.022;12.114;2022-11-06T13:10:54;20.70;;;9.33;;
18793;SDS011;29610;49.022;12.114;2022-11-06T13:13:57;16.40;;;8.03;;
18793;SDS011;29610;49.022;12.114;2022-11-06T13:16:48;19.53;;;8.47;;
18793;SDS011;29610;49.022;12.114;2022-11-06T13:26:45;14.87;;;6.87;;
18793;SDS011;29610;49.022;12.114;2022-11-06T13:29:27;18.10;;;6.90;;
18793;SDS011;29610;49.022;12.114;2022-11-06T13:32:07;16.77;;;8.03;;
18793;SDS011;29610;49.022;12.114;2022-11-06T13:35:02;18.00;;;8.70;;
18793;SDS011;29610;49.022;12.114;2022-11-06T13:38:32;16.07;;;8.70;;
18793;SDS011;29610;49.022;12.114;2022-11-06T13:41:26;17.93;;;8.70;;
18793;SDS011;29610;49.022;12.114;2022-11-06T13:44:08;16.53;;;8.37;;
18793;SDS011;29610;49.022;12.114;2022-11-06T13:46:48;15.20;;;7.63;;
18793;SDS011;29610;49.022;12.114;2022-11-06T13:49:47;17.57;;;8.77;;
18793;SDS011;29610;49.022;12.114;2022-11-06T13:52:40;15.67;;;7.33;;
18793;SDS011;29610;49.022;12.114;2022-11-06T13:55:20;16.47;;;7.77;;
18793;SDS011;29610;49.022;12.114;2022-11-06T13:58:19;15.90;;;8.33;;
18793;SDS011;29610;49.022;12.114;2022-11-06T14:01:23;18.83;;;7.97;;
18793;SDS011;29610;49.022;12.114;2022-11-06T14:04:27;17.77;;;8.60;;
18793;SDS011;29610;49.022;12.114;2022-11-06T14:07:21;18.23;;;9.13;;
18793;SDS011;29610;49.022;12.114;2022-11-06T14:10:01;18.73;;;9.43;;
18793;SDS011;29610;49.022;12.114;2022-11-06T14:12:34;17.20;;;9.23;;
18793;SDS011;29610;49.022;12.114;2022-11-06T14:15:15;17.67;;;9.27;;
18793;SDS011;29610;49.022;12.114;2022-11-06T14:18:00;19.17;;;8.20;;
18793;SDS011;29610;49.022;12.114;2022-11-06T14:20:30;18.97;;;9.27;;
18793;SDS011;29610;49.022;12.114;2022-11-06T14:26:14;16.13;;;8.93;;
18793;SDS011;29610;49.022;12.114;2022-11-06T14:32:39;18.17;;;9.37;;
18793;SDS011;29610;49.022;12.114;2022-11-06T14:38:29;17.17;;;8.67;;
18793;SDS011;29610;49.022;12.114;2022-11-06T14:44:43;19.90;;;9.90;;
18793;SDS011;29610;49.022;12.114;2022-11-06T14:47:24;19.23;;;10.03;;
18793;SDS011;29610;49.022;12.114;2022-11-06T14:50:07;19.40;;;10.33;;
18793;SDS011;29610;49.022;12.114;2022-11-06T14:52:58;20.13;;;9.73;;
18793;SDS011;29610;49.022;12.114;2022-11-06T14:55:30;23.80;;;10.53;;
18793;SDS011;29610;49.022;12.114;2022-11-06T14:58:13;17.73;;;9.80;;
18793;SDS011;29610;49.022;12.114;2022-11-06T15:00:49;20.10;;;9.90;;
18793;SDS011;29610;49.022;12.114;2022-11-06T15:03:26;23.73;;;14.00;;
18793;SDS011;29610;49.022;12.114;2022-11-06T15:06:07;34.63;;;21.10;;
18793;SDS011;29610;49.022;12.114;2022-11-06T15:09:14;28.10;;;16.17;;
18793;SDS011;29610;49.022;12.114;2022-11-06T15:12:13;17.17;;;9.30;;
18793;SDS011;29610;49.022;12.114;2022-11-06T15:14:52;18.13;;;9.23;;
18793;SDS011;29610;49.022;12.114;2022-11-06T15:17:32;17.33;;;9.20;;
18793;SDS011;29610;49.022;12.114;2022-11-06T15:20:09;18.60;;;10.80;;
18793;SDS011;29610;49.022;12.114;2022-11-06T15:23:12;19.20;;;10.57;;
18793;SDS011;29610;49.022;12.114;2022-11-06T15:28:43;23.27;;;12.50;;
18793;SDS011;29610;49.022;12.114;2022-11-06T15:31:32;27.27;;;16.10;;
18793;SDS011;29610;49.022;12.114;2022-11-06T15:37:06;23.30;;;11.60;;
18793;SDS011;29610;49.022;12.114;2022-11-06T15:39:48;20.00;;;9.20;;
18793;SDS011;29610;49.022;12.114;2022-11-06T15:42:28;22.27;;;10.97;;
18793;SDS011;29610;49.022;12.114;2022-11-06T15:45:05;21.53;;;11.47;;
18793;SDS011;29610;49.022;12.114;2022-11-06T15:47:51;20.40;;;10.50;;
18793;SDS011;29610;49.022;12.114;2022-11-06T15:50:21;23.30;;;11.90;;
18793;SDS011;29610;49.022;12.114;2022-11-06T15:53:18;22.00;;;11.10;;